Main page
METAR-TAF:

METAR-TAF

Airports :

RAF Leeming

Leeming, England

latitude: 54-18N, longitude: 001-32W, elevation: 40 m

Current weather observation

The report was made 1 hour and 13 minutes ago, at 23:50 UTC
Wind 17 kt from the West
Temperature 5°C
Humidity 70%
Pressure 1008 hPa
Visibility 10 km or more

METAR: EGXE 172350Z AUTO 26017KT 9999 FEW033/// 05/00 Q1008

Time: 01:03 (01:03 UTC)

Forecast

The report was made 11 hours and 9 minutes ago, at 13:54 UTC
Forecast valid from 17 at 15 UTC to 17 at 19 UTC
Wind 18 kt from the West/Southwest with gusts up to 28 kt
Visibility 10 km or more
Scattered clouds at a height of 3000 ft
Probability 40% :
Temporary
from 17 at 15 UTC to 17 at 16 UTC
Wind 22 kt from the West with gusts up to 33 kt
Probability 30% :
Temporary
from 17 at 15 UTC to 17 at 18 UTC
Visibility: 6000 m
Scattered clouds at a height of 2000 ft
rain showers

TAF: EGXE 171354Z 1715/1719 24018G28KT 9999 SCT030 PROB40 TEMPO 1715/1716 27022G33KT PROB30 TEMPO 1715/1718 6000 SHRA SCT020

Weather observations and forecasts of more than 4000 airports (METAR and TAF reports).

The available stations are represented by yellow and red dots on the map.

Hover mouse over dot to see the name of the station.

Then click to see weather observations and forecasts.

To change the map : click on the green buttons with a black cross to zoom in, on the green button with a dash to zoom out, or on the green arrows for adjacent maps.


METAR-TAF: